createdAt,value
2022-08-28T00:02:46.592Z,17.51
2022-08-28T00:08:48.733Z,17.46
2022-08-28T00:14:50.707Z,17.46
2022-08-28T00:20:53.411Z,17.68
2022-08-28T00:27:14.068Z,17.58
2022-08-28T00:33:36.280Z,17.34
2022-08-28T00:39:38.231Z,17.45
2022-08-28T00:45:40.579Z,17.52
2022-08-28T00:52:01.335Z,17.49
2022-08-28T00:58:04.168Z,17.65
2022-08-28T01:04:06.508Z,17.49
2022-08-28T01:10:13.913Z,17.31
2022-08-28T01:16:18.651Z,17.16
2022-08-28T01:22:59.488Z,17.14
2022-08-28T01:29:02.742Z,17.02
2022-08-28T01:35:09.815Z,17.05
2022-08-28T01:41:14.010Z,17.34
2022-08-28T01:47:16.685Z,17.07
2022-08-28T01:53:24.964Z,16.98
2022-08-28T01:59:27.094Z,17.25
2022-08-28T02:05:33.028Z,17.17
2022-08-28T02:11:35.125Z,16.98
2022-08-28T02:17:37.217Z,17.22
2022-08-28T02:23:41.899Z,17.10
2022-08-28T02:29:44.245Z,16.80
2022-08-28T02:35:46.245Z,16.37
2022-08-28T02:41:48.537Z,16.26
2022-08-28T02:47:53.672Z,15.96
2022-08-28T02:53:55.663Z,15.95
2022-08-28T02:59:58.940Z,15.95
2022-08-28T03:06:02.274Z,15.84
2022-08-28T03:12:04.710Z,15.77
2022-08-28T03:18:08.087Z,15.85
2022-08-28T03:24:15.144Z,15.72
2022-08-28T03:30:20.078Z,15.72
2022-08-28T03:36:25.844Z,15.60
2022-08-28T03:42:27.959Z,15.54
2022-08-28T03:48:34.690Z,15.50
2022-08-28T03:54:36.666Z,15.40
2022-08-28T04:00:40.519Z,15.45
2022-08-28T04:06:42.572Z,15.42
2022-08-28T04:12:44.556Z,15.52
2022-08-28T04:18:49.373Z,15.48
2022-08-28T04:24:51.412Z,15.48
2022-08-28T04:30:55.272Z,15.42
2022-08-28T04:36:57.300Z,15.57
2022-08-28T04:42:59.210Z,15.58
2022-08-28T04:49:01.239Z,15.65
2022-08-28T04:55:04.765Z,15.80
2022-08-28T05:01:24.651Z,15.81
2022-08-28T05:07:26.797Z,15.88
2022-08-28T05:13:28.816Z,15.93
2022-08-28T05:19:33.344Z,15.95
2022-08-28T05:25:38.145Z,15.83
2022-08-28T05:31:42.698Z,15.90
2022-08-28T05:37:45.966Z,15.93
2022-08-28T05:43:49.171Z,16.23
2022-08-28T05:49:51.127Z,16.04
2022-08-28T05:55:54.353Z,16.06
2022-08-28T06:02:00.947Z,16.17
2022-08-28T06:08:06.113Z,16.32
2022-08-28T06:14:10.944Z,16.24
2022-08-28T06:20:13.665Z,16.23
2022-08-28T06:26:15.728Z,16.61
2022-08-28T06:32:17.989Z,16.73
2022-08-28T06:38:23.602Z,16.70
2022-08-28T06:44:25.632Z,16.86
2022-08-28T06:50:27.721Z,17.21
2022-08-28T06:56:29.808Z,18.08
2022-08-28T07:02:31.810Z,18.91
2022-08-28T07:08:35.016Z,18.88
2022-08-28T07:14:38.126Z,18.56
2022-08-28T07:20:40.307Z,18.69
2022-08-28T07:26:44.735Z,19.08
2022-08-28T07:32:49.820Z,19.69
2022-08-28T07:38:52.495Z,20.21
2022-08-28T07:44:57.229Z,20.86
2022-08-28T07:50:59.202Z,20.91
2022-08-28T07:57:02.689Z,20.95
2022-08-28T08:03:05.078Z,20.32
2022-08-28T08:09:11.080Z,19.76
2022-08-28T08:15:13.601Z,19.55
2022-08-28T08:21:19.936Z,19.28
2022-08-28T08:27:22.188Z,19.32
2022-08-28T08:33:24.147Z,19.62
2022-08-28T08:39:26.442Z,19.70
2022-08-28T08:45:30.978Z,20.16
2022-08-28T08:51:43.241Z,19.93
2022-08-28T08:57:49.405Z,20.10
2022-08-28T09:04:22.645Z,20.18
2022-08-28T09:10:39.651Z,20.12
2022-08-28T09:16:45.568Z,20.31
2022-08-28T09:22:49.689Z,21.12
2022-08-28T09:29:14.221Z,22.64
2022-08-28T09:35:28.326Z,22.39
2022-08-28T09:41:49.392Z,22.30
2022-08-28T09:47:59.711Z,22.52
2022-08-28T09:54:29.495Z,22.57
2022-08-28T10:00:37.184Z,22.61
2022-08-28T10:06:40.247Z,24.57
2022-08-28T10:13:17.593Z,24.47
2022-08-28T10:19:45.737Z,23.32
2022-08-28T10:26:23.535Z,24.84
2022-08-28T10:32:55.985Z,26.37
2022-08-28T10:39:28.586Z,27.15
2022-08-28T10:45:34.891Z,28.44
2022-08-28T10:51:53.066Z,29.62
2022-08-28T10:58:04.790Z,31.00
2022-08-28T11:04:25.900Z,30.67
2022-08-28T11:10:34.935Z,31.91
2022-08-28T11:16:45.637Z,32.44
2022-08-28T11:22:56.464Z,31.05
2022-08-28T11:28:58.524Z,32.02
2022-08-28T11:35:12.308Z,29.95
2022-08-28T11:41:27.246Z,28.31
2022-08-28T11:47:43.408Z,28.40
2022-08-28T11:54:38.829Z,27.00
2022-08-28T12:01:03.616Z,27.12
2022-08-28T12:07:11.627Z,25.68
2022-08-28T12:13:48.716Z,25.22
2022-08-28T12:20:10.304Z,25.27
2022-08-28T12:26:30.346Z,24.89
2022-08-28T12:33:31.817Z,24.88
2022-08-28T12:39:34.205Z,25.85
2022-08-28T12:46:01.018Z,25.94
2022-08-28T12:52:20.932Z,25.68
2022-08-28T12:58:34.007Z,25.28
2022-08-28T13:05:09.222Z,25.90
2022-08-28T13:11:11.256Z,27.35
2022-08-28T13:17:36.023Z,28.46
2022-08-28T13:23:38.094Z,30.14
2022-08-28T13:30:03.881Z,31.31
2022-08-28T13:36:25.092Z,32.72
2022-08-28T13:42:27.061Z,33.44
2022-08-28T13:48:29.043Z,34.25
2022-08-28T13:54:31.029Z,32.13
2022-08-28T14:00:40.991Z,31.29
2022-08-28T14:06:44.423Z,31.37
2022-08-28T14:12:47.729Z,33.92
2022-08-28T14:18:50.412Z,33.48
2022-08-28T14:24:52.442Z,32.56
2022-08-28T14:30:54.432Z,32.94
2022-08-28T14:36:56.427Z,32.92
2022-08-28T14:42:58.357Z,34.06
2022-08-28T14:49:05.467Z,33.43
2022-08-28T14:55:08.072Z,33.66
2022-08-28T15:01:39.608Z,34.98
2022-08-28T15:07:42.951Z,34.20
2022-08-28T15:13:47.038Z,35.28
2022-08-28T15:19:49.063Z,34.73
2022-08-28T15:25:51.095Z,35.57
2022-08-28T15:31:53.621Z,36.21
2022-08-28T15:37:55.781Z,35.68
2022-08-28T15:44:01.474Z,35.57
2022-08-28T15:50:05.041Z,34.85
2022-08-28T15:56:07.455Z,35.37
2022-08-28T16:02:10.416Z,34.57
2022-08-28T16:08:12.425Z,35.03
2022-08-28T16:14:19.108Z,34.21
2022-08-28T16:20:22.883Z,32.28
2022-08-28T16:26:24.961Z,32.42
2022-08-28T16:32:26.996Z,32.81
2022-08-28T16:38:30.489Z,33.31
2022-08-28T16:44:33.067Z,32.94
2022-08-28T16:50:35.007Z,31.46
2022-08-28T16:56:37.405Z,31.52
2022-08-28T17:02:39.779Z,31.71
2022-08-28T17:08:42.115Z,31.59
2022-08-28T17:14:44.867Z,31.18
2022-08-28T17:21:05.390Z,30.81
2022-08-28T17:27:08.081Z,29.88
2022-08-28T17:33:10.075Z,29.15
2022-08-28T17:39:16.351Z,27.95
2022-08-28T17:45:18.470Z,27.87
2022-08-28T17:51:20.437Z,27.20
2022-08-28T17:57:42.466Z,25.88
2022-08-28T18:03:53.171Z,24.21
2022-08-28T18:09:55.515Z,23.01
2022-08-28T18:15:57.672Z,22.25
2022-08-28T18:21:59.656Z,21.39
2022-08-28T18:28:03.617Z,20.91
2022-08-28T18:34:06.219Z,20.51
2022-08-28T18:40:09.986Z,20.20
2022-08-28T18:46:14.957Z,19.80
2022-08-28T18:52:17.019Z,19.59
2022-08-28T18:58:19.085Z,19.31
2022-08-28T19:04:21.033Z,19.17
2022-08-28T19:10:33.278Z,18.86
2022-08-28T19:16:35.785Z,18.39
2022-08-28T19:22:38.736Z,18.29
2022-08-28T19:28:40.965Z,18.11
2022-08-28T19:34:43.901Z,17.77
2022-08-28T19:40:45.892Z,17.65
2022-08-28T19:46:48.406Z,17.88
2022-08-28T19:52:50.404Z,17.52
2022-08-28T19:58:58.415Z,17.60
2022-08-28T20:05:00.492Z,17.18
2022-08-28T20:11:02.488Z,17.18
2022-08-28T20:17:04.975Z,17.04
2022-08-28T20:23:07.465Z,16.79
2022-08-28T20:29:10.803Z,16.71
2022-08-28T20:35:14.374Z,16.44
2022-08-28T20:41:19.950Z,16.39
2022-08-28T20:47:22.147Z,16.32
2022-08-28T20:53:37.530Z,16.13
2022-08-28T20:59:42.082Z,16.13
2022-08-28T21:05:48.043Z,15.68
2022-08-28T21:11:51.686Z,15.43
2022-08-28T21:17:53.693Z,15.41
2022-08-28T21:23:56.086Z,15.30
2022-08-28T21:29:59.957Z,15.16
2022-08-28T21:36:02.052Z,14.83
2022-08-28T21:42:04.186Z,14.47
2022-08-28T21:48:06.163Z,14.46
2022-08-28T21:54:08.596Z,14.54
2022-08-28T22:00:23.161Z,14.48
2022-08-28T22:06:27.917Z,14.50
2022-08-28T22:12:31.093Z,14.53
2022-08-28T22:18:35.375Z,14.47
2022-08-28T22:24:37.630Z,14.38
2022-08-28T22:30:40.103Z,14.28
2022-08-28T22:36:42.121Z,14.07
2022-08-28T22:42:44.332Z,14.01
2022-08-28T22:48:46.487Z,13.86
2022-08-28T22:54:53.066Z,13.57
2022-08-28T23:00:56.989Z,13.48
2022-08-28T23:06:58.944Z,13.36
2022-08-28T23:13:00.921Z,13.19
2022-08-28T23:19:08.734Z,13.25
2022-08-28T23:25:19.283Z,13.08
2022-08-28T23:31:21.686Z,12.98
2022-08-28T23:37:23.820Z,12.96
2022-08-28T23:43:25.821Z,12.81
2022-08-28T23:49:27.820Z,12.75
2022-08-28T23:55:30.804Z,12.75
